createdAt,value
2023-05-02T00:01:35.089Z,0.00
2023-05-02T00:11:41.392Z,0.00
2023-05-02T00:21:47.620Z,0.00
2023-05-02T00:31:54.035Z,0.00
2023-05-02T00:42:00.148Z,0.00
2023-05-02T00:52:06.674Z,0.00
2023-05-02T01:02:13.400Z,0.00
2023-05-02T01:12:19.783Z,0.00
2023-05-02T01:22:25.980Z,0.00
2023-05-02T01:32:32.301Z,0.00
2023-05-02T01:42:38.727Z,0.00
2023-05-02T01:52:45.103Z,0.00
2023-05-02T02:02:50.954Z,0.00
2023-05-02T02:12:57.305Z,0.00
2023-05-02T02:23:04.597Z,0.00
2023-05-02T02:33:10.902Z,0.00
2023-05-02T02:43:17.139Z,0.00
2023-05-02T02:53:23.258Z,0.00
2023-05-02T03:03:29.568Z,0.00
2023-05-02T03:13:35.724Z,0.00
2023-05-02T03:23:42.102Z,0.00
2023-05-02T03:33:48.715Z,0.00
2023-05-02T03:43:54.908Z,0.00
2023-05-02T03:54:01.065Z,0.00
2023-05-02T04:04:07.446Z,0.00
2023-05-02T04:14:14.076Z,0.00
2023-05-02T04:24:20.571Z,4.00
2023-05-02T04:34:22.315Z,4.00
2023-05-02T04:44:27.682Z,12.00
2023-05-02T04:54:34.099Z,8.00
2023-05-02T05:04:41.736Z,8.00
2023-05-02T05:14:48.401Z,12.00
2023-05-02T05:24:55.002Z,16.00
2023-05-02T05:35:01.121Z,20.00
2023-05-02T05:45:07.047Z,16.00
2023-05-02T05:55:13.292Z,8.00
2023-05-02T06:05:19.506Z,8.00
2023-05-02T06:15:25.449Z,4.00
2023-05-02T06:25:32.549Z,16.00
2023-05-02T06:35:43.200Z,32.00
2023-05-02T06:45:51.115Z,36.00
2023-05-02T06:55:58.714Z,44.00
2023-05-02T07:06:06.572Z,44.00
2023-05-02T07:16:13.770Z,24.00
2023-05-02T07:26:21.172Z,28.00
2023-05-02T07:36:28.128Z,24.00
2023-05-02T07:46:35.694Z,40.00
2023-05-02T07:56:43.008Z,40.00
2023-05-02T08:06:50.551Z,24.00
2023-05-02T08:16:57.962Z,36.00
2023-05-02T08:27:05.624Z,12.00
2023-05-02T08:37:12.683Z,20.00
2023-05-02T08:47:19.951Z,40.00
2023-05-02T08:57:27.485Z,28.00
2023-05-02T09:07:35.063Z,24.00
2023-05-02T09:17:42.433Z,28.00
2023-05-02T09:27:50.091Z,32.00
2023-05-02T09:37:57.195Z,32.00
2023-05-02T09:48:04.444Z,24.00
2023-05-02T09:58:12.779Z,28.00
2023-05-02T10:08:20.213Z,32.00
2023-05-02T10:18:28.747Z,44.00
2023-05-02T10:28:36.405Z,516.00
2023-05-02T10:38:44.141Z,692.00
2023-05-02T10:48:51.468Z,388.00
2023-05-02T10:58:58.841Z,320.00
2023-05-02T11:09:06.511Z,196.00
2023-05-02T11:19:13.703Z,84.00
2023-05-02T11:29:20.537Z,32.00
2023-05-02T11:39:27.623Z,24.00
2023-05-02T11:49:34.535Z,16.00
2023-05-02T11:59:42.089Z,20.00
2023-05-02T12:09:49.025Z,36.00
2023-05-02T12:19:56.346Z,28.00
2023-05-02T12:30:03.603Z,28.00
2023-05-02T12:40:11.036Z,52.00
2023-05-02T12:50:18.107Z,52.00
2023-05-02T13:00:25.692Z,64.00
2023-05-02T13:10:33.191Z,96.00
2023-05-02T13:20:40.722Z,68.00
2023-05-02T13:30:47.675Z,64.00
2023-05-02T13:40:55.014Z,60.00
2023-05-02T13:51:02.260Z,56.00
2023-05-02T14:01:09.352Z,52.00
2023-05-02T14:11:16.886Z,40.00
2023-05-02T14:21:24.160Z,48.00
2023-05-02T14:31:31.232Z,28.00
2023-05-02T14:41:38.722Z,28.00
2023-05-02T14:51:46.052Z,40.00
2023-05-02T15:01:53.801Z,28.00
2023-05-02T15:12:00.828Z,20.00
2023-05-02T15:22:08.141Z,16.00
2023-05-02T15:32:15.757Z,24.00
2023-05-02T15:42:23.102Z,16.00
2023-05-02T15:52:30.207Z,8.00
2023-05-02T16:02:37.378Z,16.00
2023-05-02T16:12:44.673Z,16.00
2023-05-02T16:22:51.937Z,28.00
2023-05-02T16:32:59.044Z,12.00
2023-05-02T16:43:05.969Z,12.00
2023-05-02T16:53:13.176Z,0.00
2023-05-02T17:03:20.286Z,4.00
2023-05-02T17:13:27.780Z,0.00
2023-05-02T17:23:34.934Z,4.00
2023-05-02T17:33:42.515Z,0.00
2023-05-02T17:43:49.993Z,4.00
2023-05-02T17:53:57.434Z,0.00
2023-05-02T18:04:04.940Z,0.00
2023-05-02T18:14:12.850Z,0.00
2023-05-02T18:24:18.923Z,0.00
2023-05-02T18:34:25.509Z,0.00
2023-05-02T18:44:32.496Z,0.00
2023-05-02T18:54:39.577Z,0.00
2023-05-02T19:04:47.110Z,0.00
2023-05-02T19:14:54.045Z,0.00
2023-05-02T19:25:00.974Z,0.00
2023-05-02T19:35:08.570Z,0.00
2023-05-02T19:45:15.454Z,0.00
2023-05-02T19:55:22.133Z,0.00
2023-05-02T20:05:30.549Z,0.00
2023-05-02T20:15:37.909Z,0.00
2023-05-02T20:25:44.864Z,0.00
2023-05-02T20:35:52.202Z,0.00
2023-05-02T20:45:59.480Z,0.00
2023-05-02T20:56:06.457Z,0.00
2023-05-02T21:06:14.500Z,0.00
2023-05-02T21:16:22.896Z,0.00
2023-05-02T21:26:29.670Z,0.00
2023-05-02T21:36:37.060Z,0.00
2023-05-02T21:46:44.229Z,0.00
2023-05-02T21:56:51.923Z,0.00
2023-05-02T22:06:59.471Z,0.00
2023-05-02T22:17:06.634Z,0.00
2023-05-02T22:27:13.692Z,0.00
2023-05-02T22:37:21.441Z,0.00
2023-05-02T22:47:29.924Z,0.00
2023-05-02T22:57:37.461Z,0.00
2023-05-02T23:07:45.019Z,0.00
2023-05-02T23:17:52.478Z,0.00
2023-05-02T23:28:00.062Z,0.00
2023-05-02T23:38:07.483Z,0.00
2023-05-02T23:48:14.933Z,0.00
2023-05-02T23:58:22.554Z,0.00
